Time;durP1;ratioP1;P1;durP2;ratioP2;P2;SDS_P1;SDS_P2;PMS_P1;PMS_P2;Temp;Humidity;BMP_temperature;BMP_pressure;BME280_temperature;BME280_humidity;BME280_pressure;Samples;Min_cycle;Max_cycle;Signal;HPM_P1;HPM_P2
2021/12/05 00:24:02;;;;;;;1.75;1.65;;;3.90;99.90;;;;;;5054691;28;20025;-79
2021/12/05 00:26:29;;;;;;;1.65;1.55;;;3.90;99.90;;;;;;5054957;28;20017;-79
2021/12/05 00:29:09;;;;;;;1.85;1.75;;;3.90;99.90;;;;;;5061627;28;20024;-80
2021/12/05 00:32:08;;;;;;;2.40;1.83;;;3.90;99.90;;;;;;5058436;28;20021;-79
2021/12/05 00:34:53;;;;;;;1.70;1.60;;;3.90;99.90;;;;;;5054753;28;20099;-79
2021/12/05 00:49:13;;;;;;;1.95;1.65;;;3.90;99.90;;;;;;5028039;28;20367;-79
2021/12/05 01:02:30;;;;;;;2.00;1.90;;;4.00;99.90;;;;;;5045348;28;20025;-80
2021/12/05 01:10:36;;;;;;;2.15;2.05;;;4.10;99.90;;;;;;5042999;28;20078;-79
2021/12/05 01:13:26;;;;;;;2.90;2.53;;;4.10;99.90;;;;;;5038397;28;20053;-79
2021/12/05 01:15:49;;;;;;;3.72;2.40;;;4.10;99.90;;;;;;5034056;28;20037;-79
2021/12/05 01:18:18;;;;;;;5.72;2.88;;;4.10;99.90;;;;;;5033821;28;20469;-79
2021/12/05 01:20:52;;;;;;;2.50;2.30;;;4.20;99.90;;;;;;5044845;28;20018;-79
2021/12/05 01:26:06;;;;;;;4.72;3.22;;;4.30;99.90;;;;;;5054081;28;20098;-79
2021/12/05 01:31:32;;;;;;;3.35;3.05;;;4.30;99.90;;;;;;5053457;28;20025;-79
2021/12/05 01:34:08;;;;;;;4.68;3.38;;;4.30;99.90;;;;;;5033253;28;20096;-79
2021/12/05 01:39:34;;;;;;;4.90;3.72;;;4.30;99.90;;;;;;5036492;28;20020;-78
2021/12/05 01:42:52;;;;;;;4.55;3.75;;;4.30;99.90;;;;;;5015947;28;20029;-79
2021/12/05 02:31:09;;;;;;;8.47;4.27;;;4.50;99.90;;;;;;5065923;28;20474;-79
2021/12/05 02:39:05;;;;;;;6.80;4.07;;;4.50;99.90;;;;;;5069971;28;20028;-79
2021/12/05 02:41:46;;;;;;;10.48;3.78;;;4.50;99.90;;;;;;5067214;28;20044;-79
2021/12/05 02:44:20;;;;;;;11.50;4.45;;;4.40;99.90;;;;;;5061176;28;20021;-79
2021/12/05 02:46:50;;;;;;;11.13;4.05;;;4.40;99.90;;;;;;5052633;28;20116;-79
2021/12/05 02:49:18;;;;;;;11.07;4.15;;;4.40;99.90;;;;;;5060419;28;20055;-79
2021/12/05 02:51:54;;;;;;;10.32;4.53;;;4.40;99.90;;;;;;5072267;28;20103;-79
2021/12/05 02:54:27;;;;;;;14.93;4.57;;;4.40;99.90;;;;;;5063546;28;20033;-79
2021/12/05 02:56:54;;;;;;;8.82;3.92;;;4.40;99.90;;;;;;5052469;28;20048;-79
2021/12/05 03:01:57;;;;;;;9.38;4.57;;;4.40;99.90;;;;;;5052205;28;20036;-79
2021/12/05 03:04:31;;;;;;;8.52;4.47;;;4.30;99.90;;;;;;5052369;28;20033;-79
2021/12/05 03:06:59;;;;;;;12.10;4.57;;;4.30;99.90;;;;;;5063752;28;20067;-79
2021/12/05 03:09:24;;;;;;;16.63;4.55;;;4.30;99.90;;;;;;5058021;28;20154;-79
2021/12/05 03:11:53;;;;;;;8.52;4.45;;;4.40;99.90;;;;;;5062440;28;20107;-79
2021/12/05 03:14:19;;;;;;;10.40;4.47;;;4.30;99.90;;;;;;5069652;28;20214;-79
2021/12/05 03:16:47;;;;;;;14.95;4.75;;;4.40;99.90;;;;;;5052082;28;20062;-79
2021/12/05 03:19:14;;;;;;;11.02;5.05;;;4.40;99.90;;;;;;5059425;28;20082;-79
2021/12/05 03:21:44;;;;;;;19.30;4.57;;;4.40;99.90;;;;;;5052408;28;20040;-79
2021/12/05 03:24:12;;;;;;;13.15;4.28;;;4.40;99.90;;;;;;5068613;28;20025;-79
2021/12/05 03:26:44;;;;;;;11.20;4.20;;;4.40;99.90;;;;;;5072384;28;20107;-79
2021/12/05 03:29:12;;;;;;;16.83;4.75;;;4.40;99.90;;;;;;5066145;28;20021;-79
2021/12/05 03:31:40;;;;;;;16.88;5.18;;;4.40;99.90;;;;;;5065739;28;20489;-79
2021/12/05 03:34:10;;;;;;;15.75;4.88;;;4.40;99.90;;;;;;5038074;28;20033;-79
2021/12/05 03:36:39;;;;;;;15.80;4.13;;;4.40;99.90;;;;;;5048741;28;20103;-79
2021/12/05 03:39:07;;;;;;;9.98;5.00;;;4.40;99.90;;;;;;5074143;28;20350;-79
2021/12/05 03:41:40;;;;;;;15.48;6.10;;;4.50;99.90;;;;;;5055432;28;20025;-79
2021/12/05 03:44:08;;;;;;;15.13;5.18;;;4.40;99.90;;;;;;5057424;28;20398;-79
2021/12/05 03:46:35;;;;;;;21.52;4.97;;;4.40;99.90;;;;;;5055673;28;20029;-79
2021/12/05 03:49:08;;;;;;;11.73;4.93;;;4.40;99.90;;;;;;5047170;28;20484;-79
2021/12/05 03:51:39;;;;;;;14.50;4.85;;;4.40;99.90;;;;;;5065033;28;20040;-79
2021/12/05 03:54:06;;;;;;;13.02;4.00;;;4.40;99.90;;;;;;5063533;28;20373;-79
2021/12/05 03:56:33;;;;;;;17.85;6.68;;;4.40;99.90;;;;;;5075379;28;20037;-79
2021/12/05 03:59:02;;;;;;;16.75;4.85;;;4.40;99.90;;;;;;5070784;28;20397;-79
2021/12/05 04:01:28;;;;;;;13.23;4.10;;;4.40;99.90;;;;;;5038084;28;20481;-79
2021/12/05 04:03:57;;;;;;;20.08;5.22;;;4.40;99.90;;;;;;5070614;28;20151;-79
2021/12/05 04:06:25;;;;;;;17.27;4.53;;;4.40;99.90;;;;;;5037599;28;20025;-79
2021/12/05 04:08:58;;;;;;;13.55;4.75;;;4.30;99.90;;;;;;5057352;28;20044;-79
2021/12/05 04:11:31;;;;;;;15.32;5.07;;;4.30;99.90;;;;;;5074991;28;20028;-79
2021/12/05 04:13:57;;;;;;;16.10;4.40;;;4.30;99.90;;;;;;5068581;28;20082;-79
2021/12/05 04:16:24;;;;;;;12.05;4.70;;;4.30;99.90;;;;;;5056841;28;20365;-79
2021/12/05 04:18:51;;;;;;;11.55;4.72;;;4.30;99.90;;;;;;5055349;28;20029;-79
2021/12/05 04:21:17;;;;;;;9.60;3.90;;;4.30;99.90;;;;;;5054891;28;21773;-79
2021/12/05 04:23:46;;;;;;;13.63;4.03;;;4.30;99.90;;;;;;5058560;28;20031;-79
2021/12/05 04:26:12;;;;;;;7.70;3.08;;;4.30;99.90;;;;;;5072705;28;20385;-79
2021/12/05 04:28:39;;;;;;;8.70;2.97;;;4.30;99.90;;;;;;5040949;28;20079;-79
2021/12/05 04:31:09;;;;;;;8.40;3.00;;;4.30;99.90;;;;;;5041589;28;20476;-79
2021/12/05 04:33:38;;;;;;;9.38;3.45;;;4.30;99.90;;;;;;5054811;28;20067;-79
2021/12/05 04:36:05;;;;;;;5.45;3.20;;;4.20;99.90;;;;;;5072756;28;20032;-79
2021/12/05 04:38:32;;;;;;;9.98;3.95;;;4.20;99.90;;;;;;5065477;28;20484;-79
2021/12/05 04:40:58;;;;;;;11.30;4.05;;;4.20;99.90;;;;;;5054412;28;20029;-79
2021/12/05 04:43:26;;;;;;;10.40;3.65;;;4.20;99.90;;;;;;5058999;28;20032;-79
2021/12/05 04:45:52;;;;;;;6.15;3.97;;;4.10;99.90;;;;;;5074623;28;20059;-79
2021/12/05 04:48:18;;;;;;;10.50;3.95;;;4.10;99.90;;;;;;5054696;28;20060;-79
2021/12/05 04:50:44;;;;;;;7.30;3.95;;;4.10;99.90;;;;;;5054302;28;20523;-79
2021/12/05 04:53:12;;;;;;;11.95;3.75;;;4.10;99.90;;;;;;5054184;28;20017;-79
2021/12/05 04:55:38;;;;;;;6.45;3.63;;;4.10;99.90;;;;;;5056145;28;20504;-78
2021/12/05 04:58:04;;;;;;;12.65;4.88;;;4.10;99.90;;;;;;5054400;28;20022;-79
2021/12/05 05:00:35;;;;;;;14.00;4.38;;;4.10;99.90;;;;;;5065260;28;20103;-79
2021/12/05 05:03:02;;;;;;;10.32;3.97;;;4.10;99.90;;;;;;5054467;28;20017;-79
2021/12/05 05:05:31;;;;;;;8.75;4.53;;;4.10;99.90;;;;;;5069570;28;20432;-79
2021/12/05 05:07:58;;;;;;;12.40;4.65;;;4.10;99.90;;;;;;5053996;28;20028;-79
2021/12/05 05:10:29;;;;;;;12.00;4.70;;;4.10;99.90;;;;;;5068613;28;20035;-79
2021/12/05 05:12:55;;;;;;;18.20;4.82;;;4.10;99.90;;;;;;5072683;28;20024;-79
2021/12/05 05:15:23;;;;;;;17.77;5.13;;;4.10;99.90;;;;;;5053831;28;20556;-79
2021/12/05 05:17:51;;;;;;;12.93;4.40;;;4.10;99.90;;;;;;5055083;28;20021;-79
2021/12/05 05:28:41;;;;;;;11.77;5.00;;;4.20;99.90;;;;;;5070907;28;20078;-79
2021/12/05 05:47:40;;;;;;;19.92;4.82;;;4.20;99.90;;;;;;5062197;28;20027;-79
2021/12/05 05:50:17;;;;;;;15.65;4.72;;;4.20;99.90;;;;;;5066249;28;20025;-79
2021/12/05 05:52:42;;;;;;;11.25;4.90;;;4.20;99.90;;;;;;5053350;28;20021;-79
2021/12/05 05:55:10;;;;;;;14.07;4.53;;;4.20;99.90;;;;;;5067095;28;20044;-79
2021/12/05 05:57:42;;;;;;;11.38;3.80;;;4.20;99.90;;;;;;5071436;28;20059;-79
2021/12/05 06:00:16;;;;;;;15.02;4.80;;;4.10;99.90;;;;;;5053380;28;20049;-79
2021/12/05 06:05:34;;;;;;;17.50;4.40;;;4.10;99.90;;;;;;5069625;28;20058;-79
2021/12/05 06:08:00;;;;;;;11.38;3.72;;;4.10;99.90;;;;;;5054891;28;20549;-79
2021/12/05 06:10:29;;;;;;;12.57;4.70;;;4.10;99.90;;;;;;5058082;28;20033;-79
2021/12/05 06:12:55;;;;;;;6.80;3.95;;;4.10;99.90;;;;;;5053303;28;20059;-79
2021/12/05 06:15:24;;;;;;;6.72;3.65;;;4.00;99.90;;;;;;5053056;28;20060;-79
2021/12/05 06:17:50;;;;;;;14.65;3.92;;;4.00;99.90;;;;;;5053140;28;20017;-79
2021/12/05 06:20:19;;;;;;;14.55;4.03;;;4.00;99.90;;;;;;5072418;28;20017;-79
2021/12/05 06:22:46;;;;;;;16.05;4.82;;;3.90;99.90;;;;;;5072514;28;20040;-79
2021/12/05 06:25:19;;;;;;;21.63;4.22;;;3.90;99.90;;;;;;5072024;28;20547;-79
2021/12/05 06:27:46;;;;;;;9.45;3.13;;;3.90;99.90;;;;;;5058711;28;20031;-79
2021/12/05 06:30:21;;;;;;;19.63;4.18;;;3.80;99.90;;;;;;5061350;28;20111;-79
2021/12/05 06:41:05;;;;;;;15.53;4.07;;;3.60;99.90;;;;;;5052445;28;20036;-79
2021/12/05 06:46:33;;;;;;;12.77;4.45;;;3.50;99.90;;;;;;5048492;28;20396;-79
2021/12/05 06:48:58;;;;;;;20.77;4.75;;;3.40;99.90;;;;;;5071760;28;20047;-79
2021/12/05 06:51:27;;;;;;;15.18;4.00;;;3.30;99.90;;;;;;5071924;28;20024;-79
2021/12/05 06:53:54;;;;;;;14.00;3.70;;;3.20;99.90;;;;;;5072014;28;20484;-79
2021/12/05 06:56:20;;;;;;;14.00;3.85;;;3.20;99.90;;;;;;5072110;28;20123;-79
2021/12/05 06:58:46;;;;;;;11.23;3.58;;;3.20;99.90;;;;;;5072370;28;20031;-79
2021/12/05 07:01:14;;;;;;;21.30;4.30;;;3.30;99.90;;;;;;5057438;28;20472;-79
2021/12/05 07:03:45;;;;;;;10.35;3.47;;;3.30;99.90;;;;;;5075316;28;20024;-79
2021/12/05 07:06:25;;;;;;;16.98;4.20;;;3.40;99.90;;;;;;5056466;28;20041;-79
2021/12/05 07:08:54;;;;;;;13.25;3.22;;;3.40;99.90;;;;;;5073782;28;20111;-78
2021/12/05 07:11:30;;;;;;;22.27;4.05;;;3.50;99.90;;;;;;5066397;28;20029;-78
2021/12/05 07:16:33;;;;;;;19.48;4.10;;;3.70;99.90;;;;;;5070210;28;20048;-79
2021/12/05 07:19:19;;;;;;;20.35;6.03;;;3.70;99.90;;;;;;5053139;28;20028;-78
2021/12/05 07:22:03;;;;;;;16.23;3.15;;;3.70;99.90;;;;;;5063139;28;20020;-78
2021/12/05 07:40:45;;;;;;;13.02;3.45;;;3.70;99.90;;;;;;5055573;28;20063;-78
2021/12/05 07:43:12;;;;;;;25.75;3.88;;;3.70;99.90;;;;;;5055770;28;20053;-78
2021/12/05 07:45:52;;;;;;;13.30;3.38;;;3.70;99.90;;;;;;5037551;28;20527;-78
2021/12/05 07:48:23;;;;;;;16.10;4.50;;;3.70;99.90;;;;;;5057284;28;20033;-79
2021/12/05 07:51:10;;;;;;;13.40;3.80;;;3.70;99.90;;;;;;5070060;28;20053;-78
2021/12/05 07:53:52;;;;;;;14.60;4.30;;;3.70;99.90;;;;;;5064555;28;20472;-79
2021/12/05 07:56:29;;;;;;;12.40;2.80;;;3.70;99.90;;;;;;5049572;28;20041;-78
2021/12/05 08:15:13;;;;;;;6.68;2.55;;;3.70;99.90;;;;;;5073343;28;20036;-79
2021/12/05 08:17:41;;;;;;;6.55;2.90;;;3.70;99.90;;;;;;5066725;28;20025;-79
2021/12/05 08:20:10;;;;;;;10.48;3.60;;;3.70;99.90;;;;;;5069993;28;20017;-79
2021/12/05 08:22:36;;;;;;;18.70;3.78;;;3.80;99.90;;;;;;5073945;28;20024;-79
2021/12/05 08:25:11;;;;;;;9.32;2.95;;;3.70;99.90;;;;;;5074814;28;20020;-79
2021/12/05 08:27:41;;;;;;;8.25;3.33;;;3.80;99.90;;;;;;5056759;28;20025;-79
2021/12/05 08:30:12;;;;;;;9.52;2.83;;;3.80;99.90;;;;;;5059581;28;20029;-79
2021/12/05 08:33:12;;;;;;;7.68;3.75;;;3.80;99.90;;;;;;5059711;28;20026;-79
2021/12/05 08:36:09;;;;;;;13.43;3.67;;;3.80;99.90;;;;;;5056097;28;20081;-79
2021/12/05 09:38:39;;;;;;;9.13;2.80;;;4.50;99.90;;;;;;5057042;28;20024;-79
2021/12/05 10:09:04;;;;;;;14.00;3.58;;;4.70;99.90;;;;;;5069938;28;20036;-79
2021/12/05 10:14:26;;;;;;;18.63;3.47;;;4.70;99.90;;;;;;5057147;28;20090;-79
2021/12/05 10:34:46;;;;;;;17.08;3.63;;;5.10;99.90;;;;;;5008226;28;20111;-79
2021/12/05 10:37:22;;;;;;;22.10;3.60;;;5.10;99.90;;;;;;5004374;28;20497;-79
2021/12/05 10:40:05;;;;;;;10.60;2.97;;;5.10;99.90;;;;;;5020875;28;20037;-79
2021/12/05 10:42:44;;;;;;;11.32;2.88;;;5.10;99.90;;;;;;5052438;28;20104;-79
2021/12/05 10:45:21;;;;;;;13.02;3.60;;;5.20;99.90;;;;;;5065519;28;20017;-79
2021/12/05 10:47:53;;;;;;;16.60;3.17;;;5.20;99.90;;;;;;5053046;28;20032;-79
2021/12/05 10:50:55;;;;;;;18.08;4.30;;;5.20;99.90;;;;;;5055204;28;20358;-79
2021/12/05 10:53:26;;;;;;;21.45;3.53;;;5.20;99.90;;;;;;5051937;28;20029;-79
2021/12/05 10:56:26;;;;;;;11.52;3.47;;;5.20;99.90;;;;;;5069509;28;20055;-79
2021/12/05 10:58:55;;;;;;;22.98;3.67;;;5.30;99.90;;;;;;5052641;28;20519;-79
2021/12/05 11:01:27;;;;;;;14.73;3.22;;;5.30;99.90;;;;;;5052851;28;20075;-79
2021/12/05 11:04:06;;;;;;;15.05;3.47;;;5.30;99.90;;;;;;5052695;28;20017;-79
2021/12/05 11:06:49;;;;;;;10.82;3.05;;;5.40;99.90;;;;;;5064697;28;20025;-77
2021/12/05 11:09:19;;;;;;;11.93;2.58;;;5.40;99.90;;;;;;5052707;28;20021;-77
2021/12/05 11:11:48;;;;;;;10.13;3.05;;;5.50;99.90;;;;;;5047889;28;20021;-77
2021/12/05 11:14:19;;;;;;;20.13;3.97;;;5.50;99.90;;;;;;5034130;28;20029;-77
2021/12/05 11:17:00;;;;;;;19.13;3.75;;;5.40;99.90;;;;;;5052546;28;20036;-77
2021/12/05 11:19:30;;;;;;;14.32;2.65;;;5.30;99.90;;;;;;5053764;28;20404;-78
2021/12/05 11:22:06;;;;;;;20.95;2.85;;;5.30;99.90;;;;;;5047913;28;20044;-77
2021/12/05 11:24:40;;;;;;;18.23;3.35;;;5.30;99.90;;;;;;5062976;28;20013;-77
2021/12/05 11:27:32;;;;;;;16.45;2.78;;;5.30;99.90;;;;;;5065155;28;20020;-77
2021/12/05 11:30:25;;;;;;;20.40;3.40;;;5.40;99.90;;;;;;5067467;28;20471;-77
2021/12/05 11:33:12;;;;;;;25.33;3.78;;;5.40;99.90;;;;;;5071661;28;20352;-77
2021/12/05 11:35:59;;;;;;;11.80;3.00;;;5.40;99.90;;;;;;5071620;28;20047;-78
2021/12/05 11:38:24;;;;;;;;;;;5.50;99.90;;;;;;5061244;28;20021;-77
2021/12/05 11:40:58;;;;;;;22.23;3.42;;;5.50;99.90;;;;;;5070059;28;19928;-77
2021/12/05 11:43:36;;;;;;;15.23;3.38;;;5.50;99.90;;;;;;5051988;28;20091;-78
2021/12/05 11:46:13;;;;;;;10.55;2.60;;;5.50;99.90;;;;;;5055613;28;20036;-78
2021/12/05 11:48:59;;;;;;;17.08;3.45;;;5.50;99.90;;;;;;5055265;28;20389;-77
2021/12/05 11:51:36;;;;;;;10.27;2.08;;;5.50;99.90;;;;;;5058035;28;20024;-77
2021/12/05 11:54:37;;;;;;;12.57;2.75;;;5.40;99.90;;;;;;5057220;28;20029;-77
2021/12/05 11:57:05;;;;;;;72.53;4.47;;;5.40;99.90;;;;;;5050301;28;20029;-77
2021/12/05 11:59:46;;;;;;;13.00;2.40;;;5.40;99.90;;;;;;5058667;28;20028;-77
2021/12/05 12:02:15;;;;;;;16.30;3.97;;;5.40;99.90;;;;;;5094021;28;20364;-77
2021/12/05 12:05:13;;;;;;;15.48;2.90;;;5.40;99.90;;;;;;5083575;28;20440;-77
2021/12/05 12:07:46;;;;;;;11.68;3.30;;;5.40;99.90;;;;;;5081403;28;20054;-77
2021/12/05 12:10:23;;;;;;;10.13;3.30;;;5.40;99.90;;;;;;5070232;28;20032;-77
2021/12/05 12:12:52;;;;;;;15.40;2.50;;;5.40;99.90;;;;;;5058528;28;20034;-77
2021/12/05 12:15:19;;;;;;;17.45;2.42;;;5.40;99.90;;;;;;5056655;28;20361;-77
2021/12/05 12:17:47;;;;;;;17.05;2.47;;;5.50;99.90;;;;;;5062141;28;20374;-77
2021/12/05 12:20:19;;;;;;;15.68;2.67;;;5.50;99.90;;;;;;5055258;28;20111;-77
2021/12/05 12:22:45;;;;;;;23.02;2.85;;;5.50;99.90;;;;;;5057170;28;20029;-77
2021/12/05 12:25:15;;;;;;;11.45;2.45;;;5.60;99.90;;;;;;5073152;28;20020;-77
2021/12/05 12:27:43;;;;;;;12.55;2.42;;;5.60;99.90;;;;;;5053911;28;20488;-77
2021/12/05 12:30:10;;;;;;;13.30;2.75;;;5.60;99.90;;;;;;5047391;28;20392;-77
2021/12/05 12:32:42;;;;;;;11.38;2.42;;;5.60;99.90;;;;;;5060095;28;20028;-77
2021/12/05 12:35:21;;;;;;;26.33;3.95;;;5.60;99.90;;;;;;5071019;28;20037;-77
2021/12/05 12:37:57;;;;;;;16.55;3.08;;;5.60;99.90;;;;;;5060652;28;20020;-77
2021/12/05 12:40:45;;;;;;;14.23;2.53;;;5.70;99.90;;;;;;5067765;28;20025;-77
2021/12/05 12:43:38;;;;;;;20.25;3.35;;;5.70;99.90;;;;;;5050645;28;20119;-77
2021/12/05 12:46:18;;;;;;;16.10;2.67;;;5.70;99.90;;;;;;5027344;28;20037;-77
2021/12/05 12:48:43;;;;;;;18.60;3.15;;;5.70;99.90;;;;;;5061309;28;20572;-77
2021/12/05 12:51:35;;;;;;;8.82;2.38;;;5.80;99.90;;;;;;5073139;28;20107;-77
2021/12/05 12:54:08;;;;;;;16.90;2.58;;;5.80;99.90;;;;;;5063510;28;20036;-77
2021/12/05 12:56:34;;;;;;;18.27;2.50;;;5.80;99.90;;;;;;5072794;28;20044;-77
2021/12/05 12:59:17;;;;;;;11.65;2.63;;;5.80;99.90;;;;;;5054334;28;20074;-77
2021/12/05 13:10:42;;;;;;;16.77;3.15;;;5.80;99.90;;;;;;5054612;28;20325;-77
2021/12/05 13:13:22;;;;;;;11.38;3.17;;;5.80;99.90;;;;;;5069649;28;20051;-77
2021/12/05 13:15:56;;;;;;;14.98;3.33;;;5.80;99.90;;;;;;5060862;28;20064;-77
2021/12/05 13:18:34;;;;;;;11.75;2.50;;;5.80;99.90;;;;;;5069012;28;20453;-77
2021/12/05 13:21:13;;;;;;;8.50;2.55;;;5.80;99.90;;;;;;5064207;28;20021;-77
2021/12/05 13:23:44;;;;;;;12.95;2.63;;;5.80;99.90;;;;;;5037763;28;20037;-77
2021/12/05 13:26:34;;;;;;;14.93;2.65;;;5.80;99.90;;;;;;5064413;28;20058;-77
2021/12/05 13:29:19;;;;;;;16.05;2.90;;;5.80;99.90;;;;;;5060168;28;20044;-77
2021/12/05 13:31:53;;;;;;;10.82;3.45;;;5.90;99.90;;;;;;5062371;28;20753;-77
2021/12/05 13:34:32;;;;;;;17.40;2.40;;;5.80;99.90;;;;;;5055612;28;20020;-77
2021/12/05 13:37:07;;;;;;;14.48;2.92;;;5.90;99.90;;;;;;5060291;28;20024;-77
2021/12/05 13:39:38;;;;;;;15.75;3.00;;;5.80;99.90;;;;;;5043699;28;20021;-77
2021/12/05 13:42:16;;;;;;;10.88;2.63;;;5.90;99.90;;;;;;5058744;28;20024;-77
2021/12/05 13:45:06;;;;;;;19.70;3.72;;;5.90;99.90;;;;;;5054300;28;20021;-77
2021/12/05 13:48:10;;;;;;;13.25;3.30;;;5.90;99.90;;;;;;5065832;28;20035;-77
2021/12/05 13:50:58;;;;;;;10.98;2.53;;;5.90;99.90;;;;;;5072593;28;20024;-76
2021/12/05 13:53:29;;;;;;;11.70;2.88;;;5.80;99.90;;;;;;5070567;28;20046;-77
2021/12/05 13:56:04;;;;;;;14.55;3.00;;;5.80;99.90;;;;;;5071563;28;20036;-77
2021/12/05 13:58:34;;;;;;;19.08;2.97;;;5.70;99.90;;;;;;5075528;28;20020;-77
2021/12/05 14:01:00;;;;;;;12.98;2.53;;;5.70;99.90;;;;;;5070940;28;20038;-77
2021/12/05 14:03:48;;;;;;;9.88;3.90;;;5.70;99.90;;;;;;5054497;28;20488;-77
2021/12/05 14:06:42;;;;;;;7.40;2.20;;;5.70;99.90;;;;;;5056224;28;20059;-77
2021/12/05 14:09:36;;;;;;;10.07;2.70;;;5.60;99.90;;;;;;5062345;28;20376;-77
2021/12/05 14:12:29;;;;;;;7.50;2.45;;;5.60;99.90;;;;;;5070167;28;20025;-77
2021/12/05 14:15:04;;;;;;;12.25;3.35;;;5.50;99.90;;;;;;5066762;28;20115;-77
2021/12/05 14:17:40;;;;;;;11.05;2.95;;;5.60;99.90;;;;;;5045791;28;20027;-77
2021/12/05 14:20:11;;;;;;;7.47;3.08;;;5.60;99.90;;;;;;5072280;28;20388;-77
2021/12/05 14:22:39;;;;;;;12.13;3.83;;;5.50;99.90;;;;;;5065123;28;20094;-77
2021/12/05 14:25:12;;;;;;;12.25;3.22;;;5.50;99.90;;;;;;5061481;28;20491;-77
2021/12/05 14:27:43;;;;;;;13.52;3.00;;;5.50;99.90;;;;;;5065711;28;20146;-77
2021/12/05 14:30:13;;;;;;;12.38;2.85;;;5.40;99.90;;;;;;5037241;28;20033;-77
2021/12/05 14:32:42;;;;;;;8.13;1.88;;;5.40;99.90;;;;;;5037326;28;20038;-77
2021/12/05 14:35:12;;;;;;;8.02;2.65;;;5.30;99.90;;;;;;5035308;28;20024;-77
2021/12/05 14:37:43;;;;;;;10.98;2.88;;;5.20;99.90;;;;;;5070863;28;20021;-77
2021/12/05 14:40:10;;;;;;;6.93;2.97;;;5.20;99.90;;;;;;5067839;28;20043;-77
2021/12/05 14:42:43;;;;;;;14.65;2.20;;;5.10;99.90;;;;;;5060084;28;20056;-77
2021/12/05 14:45:20;;;;;;;4.65;2.03;;;5.00;99.90;;;;;;5035532;28;20021;-77
2021/12/05 14:47:47;;;;;;;9.15;2.35;;;4.90;99.90;;;;;;5061989;28;20021;-77
2021/12/05 14:50:20;;;;;;;9.27;2.10;;;4.80;99.90;;;;;;5092662;28;20016;-77
2021/12/05 14:52:49;;;;;;;10.90;2.22;;;4.80;99.90;;;;;;5063485;28;20107;-77
2021/12/05 14:55:18;;;;;;;4.88;2.10;;;4.80;99.90;;;;;;5058248;28;20068;-77
2021/12/05 14:57:52;;;;;;;9.90;2.03;;;4.70;99.90;;;;;;5082285;28;20054;-77
2021/12/05 15:00:35;;;;;;;12.27;2.58;;;4.70;99.90;;;;;;5060314;28;20441;-77
2021/12/05 15:03:03;;;;;;;6.25;2.40;;;4.60;99.90;;;;;;5052798;28;20493;-77
2021/12/05 15:05:30;;;;;;;3.72;1.83;;;4.60;99.90;;;;;;5066917;28;20104;-77
2021/12/05 15:08:10;;;;;;;5.68;1.95;;;4.60;99.90;;;;;;5072194;28;20029;-77
2021/12/05 15:10:36;;;;;;;6.70;1.98;;;4.60;99.90;;;;;;5091524;28;20376;-77
2021/12/05 15:13:04;;;;;;;6.13;2.33;;;4.50;99.90;;;;;;5033991;28;20033;-77
2021/12/05 15:15:29;;;;;;;9.73;2.38;;;4.50;99.90;;;;;;5056721;28;20033;-77
2021/12/05 15:17:56;;;;;;;5.55;2.50;;;4.50;99.90;;;;;;5052598;28;20029;-79
2021/12/05 15:20:26;;;;;;;7.70;2.03;;;4.50;99.90;;;;;;5052001;28;20384;-77
2021/12/05 15:22:54;;;;;;;6.10;1.80;;;4.50;99.90;;;;;;5068190;28;20025;-77
2021/12/05 15:25:27;;;;;;;12.50;2.67;;;4.50;99.90;;;;;;5087457;28;20024;-77
2021/12/05 15:27:55;;;;;;;12.65;2.72;;;4.50;99.90;;;;;;5077367;28;20479;-76
2021/12/05 15:30:27;;;;;;;11.40;2.35;;;4.40;99.90;;;;;;5075710;28;20369;-77
2021/12/05 15:33:03;;;;;;;8.95;2.30;;;4.40;99.90;;;;;;5045398;28;20033;-79
2021/12/05 15:35:28;;;;;;;;;;;4.40;99.90;;;;;;5059122;28;20083;-77
2021/12/05 15:38:11;;;;;;;10.27;3.33;;;4.40;99.90;;;;;;5055505;28;19905;-77
2021/12/05 15:40:41;;;;;;;6.10;3.53;;;4.40;99.90;;;;;;5038217;28;20083;-77
2021/12/05 15:43:13;;;;;;;6.90;2.40;;;4.30;99.90;;;;;;5056025;28;20104;-76
2021/12/05 15:45:40;;;;;;;11.43;2.05;;;4.30;99.90;;;;;;5064757;28;20140;-77
2021/12/05 15:48:06;;;;;;;14.40;3.03;;;4.30;99.90;;;;;;5060683;28;20028;-79
2021/12/05 15:50:35;;;;;;;10.70;2.22;;;4.30;99.90;;;;;;5056182;28;20032;-77
2021/12/05 15:53:05;;;;;;;11.00;2.95;;;4.30;99.90;;;;;;5043894;28;20032;-77
2021/12/05 15:55:57;;;;;;;8.23;2.90;;;4.30;99.90;;;;;;5055458;28;20044;-77
2021/12/05 15:58:31;;;;;;;8.50;2.55;;;4.30;99.90;;;;;;5073756;28;20099;-77
2021/12/05 16:01:03;;;;;;;11.70;3.00;;;4.20;99.90;;;;;;5074887;28;20017;-80
2021/12/05 16:03:47;;;;;;;9.85;3.60;;;4.30;99.90;;;;;;5063763;28;20067;-80
2021/12/05 16:06:14;;;;;;;21.58;8.63;;;4.20;99.90;;;;;;5057599;28;20024;-80
2021/12/05 16:08:42;;;;;;;39.80;15.77;;;4.20;99.90;;;;;;5050843;28;20400;-77
2021/12/05 16:11:13;;;;;;;27.42;13.20;;;4.20;99.90;;;;;;5064628;28;20528;-80
2021/12/05 16:13:41;;;;;;;28.23;12.82;;;4.20;99.90;;;;;;5055376;28;20087;-79
2021/12/05 16:16:07;;;;;;;25.42;11.95;;;4.20;99.90;;;;;;5057927;28;20081;-77
2021/12/05 16:18:35;;;;;;;26.38;12.20;;;4.20;99.90;;;;;;5074380;28;20025;-77
2021/12/05 16:21:05;;;;;;;22.52;9.15;;;4.20;99.90;;;;;;5055713;28;20039;-77
2021/12/05 16:23:40;;;;;;;19.05;9.15;;;4.20;99.90;;;;;;5060281;28;20154;-77
2021/12/05 16:26:22;;;;;;;18.23;8.20;;;4.20;99.90;;;;;;5067667;28;20102;-80
2021/12/05 16:28:55;;;;;;;16.55;7.00;;;4.20;99.90;;;;;;5074743;28;20399;-77
2021/12/05 16:31:31;;;;;;;10.70;5.50;;;4.20;99.90;;;;;;5054816;28;20025;-77
2021/12/05 16:34:05;;;;;;;13.30;5.20;;;4.20;99.90;;;;;;5071392;28;20032;-77
2021/12/05 16:36:39;;;;;;;11.10;4.60;;;4.20;99.90;;;;;;5066140;28;20115;-80
2021/12/05 16:39:15;;;;;;;6.47;3.55;;;4.20;99.90;;;;;;5074793;28;20016;-78
2021/12/05 16:42:06;;;;;;;9.13;4.05;;;4.20;99.90;;;;;;5064020;28;20029;-78
2021/12/05 16:44:37;;;;;;;11.05;3.33;;;4.20;99.90;;;;;;5054284;28;20083;-78
2021/12/05 16:47:10;;;;;;;6.40;2.67;;;4.20;99.90;;;;;;5054007;28;20029;-81
2021/12/05 16:49:38;;;;;;;5.75;2.50;;;4.10;99.90;;;;;;5062832;28;20024;-80
2021/12/05 16:52:14;;;;;;;10.23;3.08;;;4.10;99.90;;;;;;5084497;28;20456;-80
2021/12/05 16:54:53;;;;;;;12.02;3.42;;;4.10;99.90;;;;;;5087050;28;20055;-80
2021/12/05 16:57:23;;;;;;;4.60;2.42;;;4.10;99.90;;;;;;5074428;28;20056;-77
2021/12/05 16:59:56;;;;;;;7.43;2.13;;;4.00;99.90;;;;;;5056965;28;20073;-80
2021/12/05 17:02:27;;;;;;;10.07;4.75;;;4.00;99.90;;;;;;5056549;28;21931;-78
2021/12/05 17:05:07;;;;;;;7.93;3.15;;;3.90;99.90;;;;;;5051592;28;20025;-81
2021/12/05 17:07:41;;;;;;;8.60;2.47;;;3.80;99.90;;;;;;5073267;28;20465;-80
2021/12/05 17:10:33;;;;;;;6.78;2.42;;;3.80;99.90;;;;;;5073428;28;20090;-80
2021/12/05 17:13:37;;;;;;;7.85;2.45;;;3.70;99.90;;;;;;5044180;28;20145;-80
2021/12/05 17:16:11;;;;;;;8.98;2.20;;;3.60;99.90;;;;;;5073429;28;20552;-81
2021/12/05 17:18:46;;;;;;;9.98;2.47;;;3.50;99.90;;;;;;5056037;28;20028;-81
2021/12/05 17:21:22;;;;;;;5.07;2.22;;;3.40;99.90;;;;;;5063390;28;20028;-81
2021/12/05 17:24:00;;;;;;;4.40;1.90;;;3.30;99.90;;;;;;5047913;28;20032;-80
2021/12/05 17:26:34;;;;;;;6.15;1.95;;;3.30;99.90;;;;;;5057280;28;20499;-81
2021/12/05 17:29:06;;;;;;;3.08;2.00;;;3.20;99.90;;;;;;5057049;28;20031;-81
2021/12/05 17:31:38;;;;;;;6.97;2.40;;;3.20;99.90;;;;;;5073675;28;20029;-78
2021/12/05 17:34:17;;;;;;;6.63;2.35;;;3.10;99.90;;;;;;5059970;28;20028;-80
2021/12/05 17:36:51;;;;;;;7.55;2.40;;;3.00;99.90;;;;;;5066671;28;20024;-81
2021/12/05 17:39:19;;;;;;;8.07;2.00;;;3.00;99.90;;;;;;5052040;28;20028;-80
2021/12/05 17:42:14;;;;;;;4.68;1.98;;;2.90;99.90;;;;;;5073308;28;20020;-80
2021/12/05 17:44:42;;;;;;;3.53;1.85;;;2.80;99.90;;;;;;5069978;28;20111;-80
2021/12/05 17:47:12;;;;;;;4.25;1.98;;;2.80;99.90;;;;;;5068008;28;20025;-81
2021/12/05 17:49:41;;;;;;;8.98;2.40;;;2.80;99.90;;;;;;5052912;28;20357;-79
2021/12/05 17:52:14;;;;;;;12.70;2.58;;;2.80;99.90;;;;;;5067136;28;20032;-80
2021/12/05 17:54:53;;;;;;;8.98;2.67;;;2.70;99.90;;;;;;5073192;28;20454;-80
2021/12/05 17:57:31;;;;;;;5.68;1.83;;;2.60;99.90;;;;;;5022023;28;20033;-80
2021/12/05 18:00:12;;;;;;;6.32;2.05;;;2.60;99.90;;;;;;5033507;28;20091;-80
2021/12/05 18:02:53;;;;;;;9.00;2.55;;;2.60;99.90;;;;;;5040646;28;20025;-78
2021/12/05 18:05:41;;;;;;;5.03;2.03;;;2.60;99.90;;;;;;5044056;28;20036;-80
2021/12/05 18:08:10;;;;;;;7.82;2.10;;;2.60;99.90;;;;;;5041679;28;20104;-81
2021/12/05 18:10:42;;;;;;;4.63;2.17;;;2.70;99.90;;;;;;5046789;28;20025;-80
2021/12/05 18:13:11;;;;;;;8.88;2.33;;;2.60;99.90;;;;;;5052891;28;20128;-80
2021/12/05 18:15:49;;;;;;;3.58;2.10;;;2.60;99.90;;;;;;5040472;28;20021;-80
2021/12/05 18:18:16;;;;;;;5.65;2.00;;;2.60;99.90;;;;;;5033146;28;20389;-80
2021/12/05 18:20:43;;;;;;;4.70;2.28;;;2.60;99.90;;;;;;5032552;28;20032;-80
2021/12/05 18:23:09;;;;;;;5.88;2.25;;;2.50;99.90;;;;;;5039896;28;20025;-80
2021/12/05 18:25:36;;;;;;;8.63;2.22;;;2.40;99.90;;;;;;5044062;28;20029;-80
2021/12/05 18:28:04;;;;;;;5.55;2.33;;;2.40;99.90;;;;;;5039872;28;20044;-80